sensor_id;sensor_type;location;lat;lon;timestamp;P1;durP1;ratioP1;P2;durP2;ratioP2
73132;SDS011;61320;52.008;4.530;2022-07-23T00:01:15;2.75;;;2.75;;
73132;SDS011;61320;52.008;4.530;2022-07-23T00:03:41;2.63;;;2.63;;
73132;SDS011;61320;52.008;4.530;2022-07-23T00:06:06;2.62;;;2.62;;
73132;SDS011;61320;52.008;4.530;2022-07-23T00:08:32;2.89;;;2.89;;
73132;SDS011;61320;52.008;4.530;2022-07-23T00:10:59;3.24;;;3.24;;
73132;SDS011;61320;52.008;4.530;2022-07-23T00:13:25;3.14;;;3.14;;
73132;SDS011;61320;52.008;4.530;2022-07-23T00:15:51;3.04;;;3.04;;
73132;SDS011;61320;52.008;4.530;2022-07-23T00:18:20;3.17;;;3.17;;
73132;SDS011;61320;52.008;4.530;2022-07-23T00:20:46;3.41;;;3.41;;
73132;SDS011;61320;52.008;4.530;2022-07-23T00:23:12;3.50;;;3.50;;
73132;SDS011;61320;52.008;4.530;2022-07-23T00:25:37;3.37;;;3.37;;
73132;SDS011;61320;52.008;4.530;2022-07-23T00:28:03;3.18;;;3.18;;
73132;SDS011;61320;52.008;4.530;2022-07-23T00:30:30;3.49;;;3.49;;
73132;SDS011;61320;52.008;4.530;2022-07-23T00:32:58;3.40;;;3.40;;
73132;SDS011;61320;52.008;4.530;2022-07-23T00:35:29;3.71;;;3.71;;
73132;SDS011;61320;52.008;4.530;2022-07-23T00:37:57;3.58;;;3.58;;
73132;SDS011;61320;52.008;4.530;2022-07-23T00:40:24;3.82;;;3.82;;
73132;SDS011;61320;52.008;4.530;2022-07-23T00:42:50;3.71;;;3.71;;
73132;SDS011;61320;52.008;4.530;2022-07-23T00:45:16;3.89;;;3.89;;
73132;SDS011;61320;52.008;4.530;2022-07-23T00:47:43;3.69;;;3.69;;
73132;SDS011;61320;52.008;4.530;2022-07-23T00:50:08;3.97;;;3.97;;
73132;SDS011;61320;52.008;4.530;2022-07-23T00:52:36;3.95;;;3.95;;
73132;SDS011;61320;52.008;4.530;2022-07-23T00:55:03;4.02;;;4.02;;
73132;SDS011;61320;52.008;4.530;2022-07-23T00:57:29;4.10;;;4.10;;
73132;SDS011;61320;52.008;4.530;2022-07-23T00:59:55;3.98;;;3.98;;
73132;SDS011;61320;52.008;4.530;2022-07-23T01:02:21;4.15;;;4.15;;
73132;SDS011;61320;52.008;4.530;2022-07-23T01:04:47;4.33;;;4.33;;
73132;SDS011;61320;52.008;4.530;2022-07-23T01:07:12;4.10;;;4.10;;
73132;SDS011;61320;52.008;4.530;2022-07-23T01:09:38;4.04;;;4.04;;
73132;SDS011;61320;52.008;4.530;2022-07-23T01:12:03;3.81;;;3.81;;
73132;SDS011;61320;52.008;4.530;2022-07-23T01:14:30;4.05;;;4.05;;
73132;SDS011;61320;52.008;4.530;2022-07-23T01:16:56;3.91;;;3.91;;
73132;SDS011;61320;52.008;4.530;2022-07-23T01:19:21;3.97;;;3.97;;
73132;SDS011;61320;52.008;4.530;2022-07-23T01:21:47;4.01;;;4.01;;
73132;SDS011;61320;52.008;4.530;2022-07-23T01:24:16;3.93;;;3.93;;
73132;SDS011;61320;52.008;4.530;2022-07-23T01:26:45;3.92;;;3.92;;
73132;SDS011;61320;52.008;4.530;2022-07-23T01:29:12;4.06;;;4.06;;
73132;SDS011;61320;52.008;4.530;2022-07-23T01:31:38;4.12;;;4.12;;
73132;SDS011;61320;52.008;4.530;2022-07-23T01:34:03;4.01;;;4.01;;
73132;SDS011;61320;52.008;4.530;2022-07-23T01:36:29;4.42;;;4.42;;
73132;SDS011;61320;52.008;4.530;2022-07-23T01:38:55;4.48;;;4.48;;
73132;SDS011;61320;52.008;4.530;2022-07-23T01:41:21;4.36;;;4.36;;
73132;SDS011;61320;52.008;4.530;2022-07-23T01:43:47;4.16;;;4.16;;
73132;SDS011;61320;52.008;4.530;2022-07-23T01:46:12;4.23;;;4.23;;
73132;SDS011;61320;52.008;4.530;2022-07-23T01:48:38;4.14;;;4.14;;
73132;SDS011;61320;52.008;4.530;2022-07-23T01:51:03;4.49;;;4.49;;
73132;SDS011;61320;52.008;4.530;2022-07-23T01:53:30;4.21;;;4.21;;
73132;SDS011;61320;52.008;4.530;2022-07-23T01:55:56;4.31;;;4.31;;
73132;SDS011;61320;52.008;4.530;2022-07-23T01:58:22;4.50;;;4.50;;
73132;SDS011;61320;52.008;4.530;2022-07-23T02:00:48;4.19;;;4.19;;
73132;SDS011;61320;52.008;4.530;2022-07-23T02:03:13;4.21;;;4.21;;
73132;SDS011;61320;52.008;4.530;2022-07-23T02:05:39;4.14;;;4.14;;
73132;SDS011;61320;52.008;4.530;2022-07-23T02:08:04;4.25;;;4.25;;
73132;SDS011;61320;52.008;4.530;2022-07-23T02:10:30;4.30;;;4.30;;
73132;SDS011;61320;52.008;4.530;2022-07-23T02:12:56;4.19;;;4.19;;
73132;SDS011;61320;52.008;4.530;2022-07-23T02:15:21;4.30;;;4.30;;
73132;SDS011;61320;52.008;4.530;2022-07-23T02:17:47;4.50;;;4.50;;
73132;SDS011;61320;52.008;4.530;2022-07-23T02:20:12;4.16;;;4.16;;
73132;SDS011;61320;52.008;4.530;2022-07-23T02:22:38;4.36;;;4.36;;
73132;SDS011;61320;52.008;4.530;2022-07-23T02:25:04;4.53;;;4.53;;
73132;SDS011;61320;52.008;4.530;2022-07-23T02:27:30;4.05;;;4.05;;
73132;SDS011;61320;52.008;4.530;2022-07-23T02:29:56;4.24;;;4.24;;
73132;SDS011;61320;52.008;4.530;2022-07-23T02:32:22;4.29;;;4.29;;
73132;SDS011;61320;52.008;4.530;2022-07-23T02:34:48;4.33;;;4.33;;
73132;SDS011;61320;52.008;4.530;2022-07-23T02:37:14;4.45;;;4.45;;
73132;SDS011;61320;52.008;4.530;2022-07-23T02:39:39;4.44;;;4.44;;
73132;SDS011;61320;52.008;4.530;2022-07-23T02:42:05;4.58;;;4.58;;
73132;SDS011;61320;52.008;4.530;2022-07-23T02:44:31;4.64;;;4.64;;
73132;SDS011;61320;52.008;4.530;2022-07-23T02:46:56;4.76;;;4.76;;
73132;SDS011;61320;52.008;4.530;2022-07-23T02:49:22;4.68;;;4.68;;
73132;SDS011;61320;52.008;4.530;2022-07-23T02:51:47;4.90;;;4.90;;
73132;SDS011;61320;52.008;4.530;2022-07-23T02:54:13;4.74;;;4.74;;
73132;SDS011;61320;52.008;4.530;2022-07-23T02:56:38;4.73;;;4.73;;
73132;SDS011;61320;52.008;4.530;2022-07-23T02:59:04;4.81;;;4.81;;
73132;SDS011;61320;52.008;4.530;2022-07-23T03:01:29;4.76;;;4.76;;
73132;SDS011;61320;52.008;4.530;2022-07-23T03:03:55;4.73;;;4.73;;
73132;SDS011;61320;52.008;4.530;2022-07-23T03:06:21;4.80;;;4.80;;
73132;SDS011;61320;52.008;4.530;2022-07-23T03:08:46;4.97;;;4.97;;
73132;SDS011;61320;52.008;4.530;2022-07-23T03:11:12;4.98;;;4.98;;
73132;SDS011;61320;52.008;4.530;2022-07-23T03:13:37;5.39;;;5.39;;
73132;SDS011;61320;52.008;4.530;2022-07-23T03:16:03;5.35;;;5.35;;
73132;SDS011;61320;52.008;4.530;2022-07-23T03:18:29;5.59;;;5.59;;
73132;SDS011;61320;52.008;4.530;2022-07-23T03:20:55;5.94;;;5.94;;
73132;SDS011;61320;52.008;4.530;2022-07-23T03:23:20;5.75;;;5.75;;
73132;SDS011;61320;52.008;4.530;2022-07-23T03:25:46;6.33;;;6.33;;
73132;SDS011;61320;52.008;4.530;2022-07-23T03:28:14;6.12;;;6.12;;
73132;SDS011;61320;52.008;4.530;2022-07-23T03:30:41;6.22;;;6.22;;
73132;SDS011;61320;52.008;4.530;2022-07-23T03:33:07;6.37;;;6.37;;
73132;SDS011;61320;52.008;4.530;2022-07-23T03:35:33;6.83;;;6.83;;
73132;SDS011;61320;52.008;4.530;2022-07-23T03:37:58;6.82;;;6.82;;
73132;SDS011;61320;52.008;4.530;2022-07-23T03:40:24;6.81;;;6.81;;
73132;SDS011;61320;52.008;4.530;2022-07-23T03:42:49;6.89;;;6.89;;
73132;SDS011;61320;52.008;4.530;2022-07-23T03:45:15;7.06;;;7.06;;
73132;SDS011;61320;52.008;4.530;2022-07-23T03:47:40;6.82;;;6.82;;
73132;SDS011;61320;52.008;4.530;2022-07-23T03:50:07;7.02;;;7.02;;
73132;SDS011;61320;52.008;4.530;2022-07-23T03:52:33;6.79;;;6.79;;
73132;SDS011;61320;52.008;4.530;2022-07-23T03:54:58;6.89;;;6.89;;
73132;SDS011;61320;52.008;4.530;2022-07-23T03:57:24;7.29;;;7.29;;
73132;SDS011;61320;52.008;4.530;2022-07-23T03:59:49;6.76;;;6.76;;
73132;SDS011;61320;52.008;4.530;2022-07-23T04:02:15;6.72;;;6.72;;
73132;SDS011;61320;52.008;4.530;2022-07-23T04:04:40;6.63;;;6.63;;
73132;SDS011;61320;52.008;4.530;2022-07-23T04:07:06;7.28;;;7.28;;
73132;SDS011;61320;52.008;4.530;2022-07-23T04:09:33;7.44;;;7.44;;
73132;SDS011;61320;52.008;4.530;2022-07-23T04:11:59;7.27;;;7.27;;
73132;SDS011;61320;52.008;4.530;2022-07-23T04:14:25;6.80;;;6.80;;
73132;SDS011;61320;52.008;4.530;2022-07-23T04:16:50;6.93;;;6.93;;
73132;SDS011;61320;52.008;4.530;2022-07-23T04:19:16;6.98;;;6.98;;
73132;SDS011;61320;52.008;4.530;2022-07-23T04:21:41;6.99;;;6.99;;
73132;SDS011;61320;52.008;4.530;2022-07-23T04:24:06;7.43;;;7.43;;
73132;SDS011;61320;52.008;4.530;2022-07-23T04:26:32;7.57;;;7.57;;
73132;SDS011;61320;52.008;4.530;2022-07-23T04:28:57;7.77;;;7.77;;
73132;SDS011;61320;52.008;4.530;2022-07-23T04:31:23;7.52;;;7.52;;
73132;SDS011;61320;52.008;4.530;2022-07-23T04:33:48;7.43;;;7.43;;
73132;SDS011;61320;52.008;4.530;2022-07-23T04:36:14;7.57;;;7.57;;
73132;SDS011;61320;52.008;4.530;2022-07-23T04:38:39;7.69;;;7.69;;
73132;SDS011;61320;52.008;4.530;2022-07-23T04:41:05;7.69;;;7.69;;
73132;SDS011;61320;52.008;4.530;2022-07-23T04:43:30;7.67;;;7.67;;
73132;SDS011;61320;52.008;4.530;2022-07-23T04:45:56;7.45;;;7.45;;
73132;SDS011;61320;52.008;4.530;2022-07-23T04:48:21;7.10;;;7.10;;
73132;SDS011;61320;52.008;4.530;2022-07-23T04:50:47;7.24;;;7.24;;
73132;SDS011;61320;52.008;4.530;2022-07-23T04:53:12;7.36;;;7.36;;
73132;SDS011;61320;52.008;4.530;2022-07-23T04:55:38;7.20;;;7.20;;
73132;SDS011;61320;52.008;4.530;2022-07-23T04:58:03;7.17;;;7.17;;
73132;SDS011;61320;52.008;4.530;2022-07-23T05:00:29;7.14;;;7.14;;
73132;SDS011;61320;52.008;4.530;2022-07-23T05:02:54;7.09;;;7.09;;
73132;SDS011;61320;52.008;4.530;2022-07-23T05:05:20;7.58;;;7.58;;
73132;SDS011;61320;52.008;4.530;2022-07-23T05:07:45;6.86;;;6.86;;
73132;SDS011;61320;52.008;4.530;2022-07-23T05:10:11;7.59;;;7.59;;
73132;SDS011;61320;52.008;4.530;2022-07-23T05:12:36;7.33;;;7.33;;
73132;SDS011;61320;52.008;4.530;2022-07-23T05:15:01;7.26;;;7.26;;
73132;SDS011;61320;52.008;4.530;2022-07-23T05:17:27;7.45;;;7.45;;
73132;SDS011;61320;52.008;4.530;2022-07-23T05:19:52;7.58;;;7.58;;
73132;SDS011;61320;52.008;4.530;2022-07-23T05:22:18;7.65;;;7.65;;
73132;SDS011;61320;52.008;4.530;2022-07-23T05:24:43;7.91;;;7.91;;
73132;SDS011;61320;52.008;4.530;2022-07-23T05:27:09;7.96;;;7.96;;
73132;SDS011;61320;52.008;4.530;2022-07-23T05:29:34;7.89;;;7.89;;
73132;SDS011;61320;52.008;4.530;2022-07-23T05:32:00;7.66;;;7.66;;
73132;SDS011;61320;52.008;4.530;2022-07-23T05:34:25;7.48;;;7.48;;
73132;SDS011;61320;52.008;4.530;2022-07-23T05:36:51;7.68;;;7.68;;
73132;SDS011;61320;52.008;4.530;2022-07-23T05:39:16;7.65;;;7.65;;
73132;SDS011;61320;52.008;4.530;2022-07-23T05:41:42;7.97;;;7.97;;
73132;SDS011;61320;52.008;4.530;2022-07-23T05:44:08;7.84;;;7.84;;
73132;SDS011;61320;52.008;4.530;2022-07-23T05:46:33;7.68;;;7.68;;
73132;SDS011;61320;52.008;4.530;2022-07-23T05:48:59;7.29;;;7.29;;
73132;SDS011;61320;52.008;4.530;2022-07-23T05:51:24;6.91;;;6.91;;
73132;SDS011;61320;52.008;4.530;2022-07-23T05:53:50;6.30;;;6.30;;
73132;SDS011;61320;52.008;4.530;2022-07-23T05:56:16;5.68;;;5.68;;
73132;SDS011;61320;52.008;4.530;2022-07-23T05:58:43;4.74;;;4.74;;
73132;SDS011;61320;52.008;4.530;2022-07-23T06:01:09;4.63;;;4.63;;
73132;SDS011;61320;52.008;4.530;2022-07-23T06:03:37;4.30;;;4.30;;
73132;SDS011;61320;52.008;4.530;2022-07-23T06:06:02;4.00;;;4.00;;
73132;SDS011;61320;52.008;4.530;2022-07-23T06:08:28;3.66;;;3.66;;
73132;SDS011;61320;52.008;4.530;2022-07-23T06:10:53;3.53;;;3.53;;
73132;SDS011;61320;52.008;4.530;2022-07-23T06:13:19;3.65;;;3.65;;
73132;SDS011;61320;52.008;4.530;2022-07-23T06:15:45;3.38;;;3.38;;
73132;SDS011;61320;52.008;4.530;2022-07-23T06:18:11;3.07;;;3.07;;
73132;SDS011;61320;52.008;4.530;2022-07-23T06:20:36;3.13;;;3.13;;
73132;SDS011;61320;52.008;4.530;2022-07-23T06:23:02;3.07;;;3.07;;
73132;SDS011;61320;52.008;4.530;2022-07-23T06:25:27;2.91;;;2.91;;
73132;SDS011;61320;52.008;4.530;2022-07-23T06:27:53;2.90;;;2.90;;
73132;SDS011;61320;52.008;4.530;2022-07-23T06:30:18;3.10;;;3.10;;
73132;SDS011;61320;52.008;4.530;2022-07-23T06:32:44;3.38;;;3.38;;
73132;SDS011;61320;52.008;4.530;2022-07-23T06:35:11;3.48;;;3.48;;
73132;SDS011;61320;52.008;4.530;2022-07-23T06:37:36;3.71;;;3.71;;
73132;SDS011;61320;52.008;4.530;2022-07-23T06:40:02;4.07;;;4.07;;
73132;SDS011;61320;52.008;4.530;2022-07-23T06:42:28;4.34;;;4.34;;
73132;SDS011;61320;52.008;4.530;2022-07-23T06:44:53;3.47;;;3.47;;
73132;SDS011;61320;52.008;4.530;2022-07-23T06:47:19;3.39;;;3.39;;
73132;SDS011;61320;52.008;4.530;2022-07-23T06:49:48;3.88;;;3.88;;
73132;SDS011;61320;52.008;4.530;2022-07-23T06:52:13;4.14;;;4.14;;
73132;SDS011;61320;52.008;4.530;2022-07-23T06:54:39;4.44;;;4.44;;
73132;SDS011;61320;52.008;4.530;2022-07-23T06:57:07;5.12;;;5.12;;
73132;SDS011;61320;52.008;4.530;2022-07-23T06:59:35;4.43;;;4.43;;
73132;SDS011;61320;52.008;4.530;2022-07-23T07:02:04;3.71;;;3.71;;
73132;SDS011;61320;52.008;4.530;2022-07-23T07:04:29;3.43;;;3.43;;
73132;SDS011;61320;52.008;4.530;2022-07-23T07:06:57;2.97;;;2.97;;
73132;SDS011;61320;52.008;4.530;2022-07-23T07:09:22;2.63;;;2.63;;
73132;SDS011;61320;52.008;4.530;2022-07-23T07:11:48;2.79;;;2.79;;
73132;SDS011;61320;52.008;4.530;2022-07-23T07:14:14;3.58;;;3.58;;
73132;SDS011;61320;52.008;4.530;2022-07-23T07:16:39;4.10;;;4.10;;
73132;SDS011;61320;52.008;4.530;2022-07-23T07:19:04;3.78;;;3.78;;
73132;SDS011;61320;52.008;4.530;2022-07-23T07:21:30;3.21;;;3.21;;
73132;SDS011;61320;52.008;4.530;2022-07-23T07:23:55;3.13;;;3.13;;
73132;SDS011;61320;52.008;4.530;2022-07-23T07:26:21;3.60;;;3.60;;
73132;SDS011;61320;52.008;4.530;2022-07-23T07:28:48;3.94;;;3.94;;
73132;SDS011;61320;52.008;4.530;2022-07-23T07:31:14;3.86;;;3.86;;
73132;SDS011;61320;52.008;4.530;2022-07-23T07:33:40;3.82;;;3.82;;
73132;SDS011;61320;52.008;4.530;2022-07-23T07:36:05;3.82;;;3.82;;
73132;SDS011;61320;52.008;4.530;2022-07-23T07:38:31;4.07;;;4.07;;
73132;SDS011;61320;52.008;4.530;2022-07-23T07:40:56;3.77;;;3.77;;
73132;SDS011;61320;52.008;4.530;2022-07-23T07:43:22;3.50;;;3.50;;
73132;SDS011;61320;52.008;4.530;2022-07-23T07:45:47;3.38;;;3.38;;
73132;SDS011;61320;52.008;4.530;2022-07-23T07:48:13;3.75;;;3.75;;
73132;SDS011;61320;52.008;4.530;2022-07-23T07:50:38;3.34;;;3.34;;
73132;SDS011;61320;52.008;4.530;2022-07-23T07:53:04;2.96;;;2.96;;
73132;SDS011;61320;52.008;4.530;2022-07-23T07:55:29;2.70;;;2.70;;
73132;SDS011;61320;52.008;4.530;2022-07-23T07:57:56;2.56;;;2.56;;
73132;SDS011;61320;52.008;4.530;2022-07-23T08:00:21;2.52;;;2.52;;
73132;SDS011;61320;52.008;4.530;2022-07-23T08:02:48;2.97;;;2.97;;
73132;SDS011;61320;52.008;4.530;2022-07-23T08:07:50;2.74;;;2.74;;
73132;SDS011;61320;52.008;4.530;2022-07-23T08:10:15;2.66;;;2.66;;
73132;SDS011;61320;52.008;4.530;2022-07-23T08:12:42;3.03;;;3.03;;
73132;SDS011;61320;52.008;4.530;2022-07-23T08:15:19;2.74;;;2.74;;
73132;SDS011;61320;52.008;4.530;2022-07-23T08:17:46;2.87;;;2.87;;
73132;SDS011;61320;52.008;4.530;2022-07-23T08:20:13;2.81;;;2.81;;
73132;SDS011;61320;52.008;4.530;2022-07-23T08:25:11;3.52;;;3.52;;
73132;SDS011;61320;52.008;4.530;2022-07-23T08:27:38;4.01;;;4.01;;
73132;SDS011;61320;52.008;4.530;2022-07-23T08:30:04;3.53;;;3.53;;
73132;SDS011;61320;52.008;4.530;2022-07-23T08:32:30;3.50;;;3.50;;
73132;SDS011;61320;52.008;4.530;2022-07-23T08:34:55;3.19;;;3.19;;
73132;SDS011;61320;52.008;4.530;2022-07-23T08:37:21;3.23;;;3.23;;
73132;SDS011;61320;52.008;4.530;2022-07-23T08:39:46;3.22;;;3.22;;
73132;SDS011;61320;52.008;4.530;2022-07-23T08:42:13;3.42;;;3.42;;
73132;SDS011;61320;52.008;4.530;2022-07-23T08:44:40;3.40;;;3.40;;
73132;SDS011;61320;52.008;4.530;2022-07-23T08:47:11;3.44;;;3.44;;
73132;SDS011;61320;52.008;4.530;2022-07-23T08:49:37;3.89;;;3.89;;
73132;SDS011;61320;52.008;4.530;2022-07-23T08:52:03;3.44;;;3.44;;
73132;SDS011;61320;52.008;4.530;2022-07-23T08:54:31;3.56;;;3.56;;
73132;SDS011;61320;52.008;4.530;2022-07-23T08:56:56;3.41;;;3.41;;
73132;SDS011;61320;52.008;4.530;2022-07-23T08:59:22;3.25;;;3.25;;
73132;SDS011;61320;52.008;4.530;2022-07-23T09:01:47;3.45;;;3.45;;
73132;SDS011;61320;52.008;4.530;2022-07-23T09:04:13;3.34;;;3.34;;
73132;SDS011;61320;52.008;4.530;2022-07-23T09:06:38;3.25;;;3.25;;
73132;SDS011;61320;52.008;4.530;2022-07-23T09:09:16;3.36;;;3.36;;
73132;SDS011;61320;52.008;4.530;2022-07-23T09:11:45;3.49;;;3.49;;
73132;SDS011;61320;52.008;4.530;2022-07-23T09:14:12;3.45;;;3.45;;
73132;SDS011;61320;52.008;4.530;2022-07-23T09:16:37;3.40;;;3.40;;
73132;SDS011;61320;52.008;4.530;2022-07-23T09:19:04;3.13;;;3.13;;
73132;SDS011;61320;52.008;4.530;2022-07-23T09:21:35;3.27;;;3.27;;
73132;SDS011;61320;52.008;4.530;2022-07-23T09:24:13;3.50;;;3.50;;
73132;SDS011;61320;52.008;4.530;2022-07-23T09:26:41;3.63;;;3.63;;
73132;SDS011;61320;52.008;4.530;2022-07-23T09:31:55;3.41;;;3.41;;
73132;SDS011;61320;52.008;4.530;2022-07-23T09:34:28;3.62;;;3.62;;
73132;SDS011;61320;52.008;4.530;2022-07-23T09:36:58;3.52;;;3.52;;
73132;SDS011;61320;52.008;4.530;2022-07-23T09:39:35;3.27;;;3.27;;
73132;SDS011;61320;52.008;4.530;2022-07-23T09:42:13;3.70;;;3.70;;
73132;SDS011;61320;52.008;4.530;2022-07-23T09:44:43;3.75;;;3.75;;
73132;SDS011;61320;52.008;4.530;2022-07-23T09:47:11;3.32;;;3.32;;
73132;SDS011;61320;52.008;4.530;2022-07-23T09:49:36;3.46;;;3.46;;
73132;SDS011;61320;52.008;4.530;2022-07-23T09:52:02;3.49;;;3.49;;
73132;SDS011;61320;52.008;4.530;2022-07-23T09:57:01;3.37;;;3.37;;
73132;SDS011;61320;52.008;4.530;2022-07-23T09:59:30;3.37;;;3.37;;
73132;SDS011;61320;52.008;4.530;2022-07-23T10:01:59;3.25;;;3.25;;
73132;SDS011;61320;52.008;4.530;2022-07-23T10:04:27;3.63;;;3.63;;
73132;SDS011;61320;52.008;4.530;2022-07-23T10:06:55;3.33;;;3.33;;
73132;SDS011;61320;52.008;4.530;2022-07-23T10:09:33;3.85;;;3.85;;
73132;SDS011;61320;52.008;4.530;2022-07-23T10:12:02;3.58;;;3.58;;
73132;SDS011;61320;52.008;4.530;2022-07-23T10:14:37;3.34;;;3.34;;
73132;SDS011;61320;52.008;4.530;2022-07-23T10:17:03;3.13;;;3.13;;
73132;SDS011;61320;52.008;4.530;2022-07-23T10:19:30;3.11;;;3.11;;
73132;SDS011;61320;52.008;4.530;2022-07-23T10:27:44;2.97;;;2.97;;
73132;SDS011;61320;52.008;4.530;2022-07-23T10:33:19;2.87;;;2.87;;
73132;SDS011;61320;52.008;4.530;2022-07-23T10:36:16;2.89;;;2.89;;
73132;SDS011;61320;52.008;4.530;2022-07-23T10:39:08;2.82;;;2.82;;
73132;SDS011;61320;52.008;4.530;2022-07-23T10:41:42;2.63;;;2.63;;
73132;SDS011;61320;52.008;4.530;2022-07-23T10:44:18;2.48;;;2.48;;
73132;SDS011;61320;52.008;4.530;2022-07-23T10:46:56;2.47;;;2.47;;
73132;SDS011;61320;52.008;4.530;2022-07-23T10:49:27;2.22;;;2.22;;
73132;SDS011;61320;52.008;4.530;2022-07-23T10:54:38;2.19;;;2.19;;
73132;SDS011;61320;52.008;4.530;2022-07-23T10:57:07;2.49;;;2.49;;
73132;SDS011;61320;52.008;4.530;2022-07-23T11:02:28;2.34;;;2.34;;
73132;SDS011;61320;52.008;4.530;2022-07-23T11:04:59;1.97;;;1.97;;
73132;SDS011;61320;52.008;4.530;2022-07-23T11:07:32;1.92;;;1.92;;
73132;SDS011;61320;52.008;4.530;2022-07-23T11:09:58;2.04;;;2.04;;
73132;SDS011;61320;52.008;4.530;2022-07-23T11:25:07;1.99;;;1.99;;
73132;SDS011;61320;52.008;4.530;2022-07-23T11:27:39;2.22;;;2.22;;
73132;SDS011;61320;52.008;4.530;2022-07-23T11:30:10;2.08;;;2.08;;
73132;SDS011;61320;52.008;4.530;2022-07-23T11:33:15;1.94;;;1.94;;
73132;SDS011;61320;52.008;4.530;2022-07-23T11:38:13;2.26;;;2.26;;
73132;SDS011;61320;52.008;4.530;2022-07-23T11:40:50;2.46;;;2.46;;
73132;SDS011;61320;52.008;4.530;2022-07-23T11:43:19;2.25;;;2.25;;
73132;SDS011;61320;52.008;4.530;2022-07-23T11:45:46;1.96;;;1.96;;
73132;SDS011;61320;52.008;4.530;2022-07-23T11:48:17;2.41;;;2.41;;
73132;SDS011;61320;52.008;4.530;2022-07-23T11:50:45;1.99;;;1.99;;
73132;SDS011;61320;52.008;4.530;2022-07-23T11:53:24;2.42;;;2.42;;
73132;SDS011;61320;52.008;4.530;2022-07-23T11:55:53;2.49;;;2.49;;
73132;SDS011;61320;52.008;4.530;2022-07-23T11:58:20;2.25;;;2.25;;
73132;SDS011;61320;52.008;4.530;2022-07-23T12:00:56;3.99;;;3.99;;
73132;SDS011;61320;52.008;4.530;2022-07-23T12:03:22;2.68;;;2.68;;
73132;SDS011;61320;52.008;4.530;2022-07-23T12:05:47;2.08;;;2.08;;
73132;SDS011;61320;52.008;4.530;2022-07-23T12:08:17;2.41;;;2.41;;
73132;SDS011;61320;52.008;4.530;2022-07-23T12:10:43;2.29;;;2.29;;
73132;SDS011;61320;52.008;4.530;2022-07-23T12:13:11;2.39;;;2.39;;
73132;SDS011;61320;52.008;4.530;2022-07-23T12:15:39;2.38;;;2.38;;
73132;SDS011;61320;52.008;4.530;2022-07-23T12:18:11;2.24;;;2.24;;
73132;SDS011;61320;52.008;4.530;2022-07-23T12:20:45;2.31;;;2.31;;
73132;SDS011;61320;52.008;4.530;2022-07-23T12:23:14;2.40;;;2.40;;
73132;SDS011;61320;52.008;4.530;2022-07-23T12:25:42;2.03;;;2.03;;
73132;SDS011;61320;52.008;4.530;2022-07-23T12:28:11;2.16;;;2.16;;
73132;SDS011;61320;52.008;4.530;2022-07-23T12:30:45;2.15;;;2.15;;
73132;SDS011;61320;52.008;4.530;2022-07-23T12:35:47;1.97;;;1.97;;
73132;SDS011;61320;52.008;4.530;2022-07-23T12:38:17;2.01;;;2.01;;
73132;SDS011;61320;52.008;4.530;2022-07-23T12:40:45;1.99;;;1.99;;
73132;SDS011;61320;52.008;4.530;2022-07-23T12:43:26;2.13;;;2.13;;
73132;SDS011;61320;52.008;4.530;2022-07-23T12:45:53;2.18;;;2.18;;
73132;SDS011;61320;52.008;4.530;2022-07-23T12:53:25;2.57;;;2.57;;
73132;SDS011;61320;52.008;4.530;2022-07-23T12:56:12;2.77;;;2.77;;
73132;SDS011;61320;52.008;4.530;2022-07-23T12:58:45;2.41;;;2.41;;
73132;SDS011;61320;52.008;4.530;2022-07-23T13:03:53;2.96;;;2.96;;
73132;SDS011;61320;52.008;4.530;2022-07-23T13:06:24;3.03;;;3.03;;
73132;SDS011;61320;52.008;4.530;2022-07-23T13:08:51;2.88;;;2.88;;
73132;SDS011;61320;52.008;4.530;2022-07-23T13:11:20;2.79;;;2.79;;
73132;SDS011;61320;52.008;4.530;2022-07-23T13:13:45;3.02;;;3.02;;
73132;SDS011;61320;52.008;4.530;2022-07-23T13:16:11;3.06;;;3.06;;
73132;SDS011;61320;52.008;4.530;2022-07-23T13:18:36;2.85;;;2.85;;
73132;SDS011;61320;52.008;4.530;2022-07-23T13:21:02;2.81;;;2.81;;
73132;SDS011;61320;52.008;4.530;2022-07-23T13:23:27;3.17;;;3.17;;
73132;SDS011;61320;52.008;4.530;2022-07-23T13:25:53;2.90;;;2.90;;
73132;SDS011;61320;52.008;4.530;2022-07-23T13:28:20;2.60;;;2.60;;
73132;SDS011;61320;52.008;4.530;2022-07-23T13:30:47;2.97;;;2.97;;
73132;SDS011;61320;52.008;4.530;2022-07-23T13:33:15;3.05;;;3.05;;
73132;SDS011;61320;52.008;4.530;2022-07-23T13:35:44;2.98;;;2.98;;
73132;SDS011;61320;52.008;4.530;2022-07-23T13:38:10;3.46;;;3.46;;
73132;SDS011;61320;52.008;4.530;2022-07-23T13:40:37;3.50;;;3.50;;
73132;SDS011;61320;52.008;4.530;2022-07-23T13:43:06;2.94;;;2.94;;
73132;SDS011;61320;52.008;4.530;2022-07-23T13:45:32;2.80;;;2.80;;
73132;SDS011;61320;52.008;4.530;2022-07-23T13:47:58;2.86;;;2.86;;
73132;SDS011;61320;52.008;4.530;2022-07-23T13:50:24;2.76;;;2.76;;
73132;SDS011;61320;52.008;4.530;2022-07-23T13:52:49;3.05;;;3.05;;
73132;SDS011;61320;52.008;4.530;2022-07-23T13:55:15;2.99;;;2.99;;
73132;SDS011;61320;52.008;4.530;2022-07-23T13:57:40;2.53;;;2.53;;
73132;SDS011;61320;52.008;4.530;2022-07-23T14:00:06;2.91;;;2.91;;
73132;SDS011;61320;52.008;4.530;2022-07-23T14:02:35;3.36;;;3.36;;
73132;SDS011;61320;52.008;4.530;2022-07-23T14:05:02;3.94;;;3.94;;
73132;SDS011;61320;52.008;4.530;2022-07-23T14:07:29;2.93;;;2.93;;
73132;SDS011;61320;52.008;4.530;2022-07-23T14:09:54;2.58;;;2.58;;
73132;SDS011;61320;52.008;4.530;2022-07-23T14:12:19;2.67;;;2.67;;
73132;SDS011;61320;52.008;4.530;2022-07-23T14:14:45;2.84;;;2.84;;
73132;SDS011;61320;52.008;4.530;2022-07-23T14:17:10;2.80;;;2.80;;
73132;SDS011;61320;52.008;4.530;2022-07-23T14:19:36;3.11;;;3.11;;
73132;SDS011;61320;52.008;4.530;2022-07-23T14:22:01;2.91;;;2.91;;
73132;SDS011;61320;52.008;4.530;2022-07-23T14:24:27;3.25;;;3.25;;
73132;SDS011;61320;52.008;4.530;2022-07-23T14:26:52;3.42;;;3.42;;
73132;SDS011;61320;52.008;4.530;2022-07-23T14:29:18;3.41;;;3.41;;
73132;SDS011;61320;52.008;4.530;2022-07-23T14:31:43;3.11;;;3.11;;
73132;SDS011;61320;52.008;4.530;2022-07-23T14:34:08;3.04;;;3.04;;
73132;SDS011;61320;52.008;4.530;2022-07-23T14:36:34;2.88;;;2.88;;
73132;SDS011;61320;52.008;4.530;2022-07-23T14:39:00;3.09;;;3.09;;
73132;SDS011;61320;52.008;4.530;2022-07-23T14:41:25;3.01;;;3.01;;
73132;SDS011;61320;52.008;4.530;2022-07-23T14:43:51;2.93;;;2.93;;
73132;SDS011;61320;52.008;4.530;2022-07-23T14:46:16;3.28;;;3.28;;
73132;SDS011;61320;52.008;4.530;2022-07-23T14:48:42;3.50;;;3.50;;
73132;SDS011;61320;52.008;4.530;2022-07-23T14:51:07;3.54;;;3.54;;
73132;SDS011;61320;52.008;4.530;2022-07-23T14:53:33;3.28;;;3.28;;
73132;SDS011;61320;52.008;4.530;2022-07-23T14:55:58;3.25;;;3.25;;
73132;SDS011;61320;52.008;4.530;2022-07-23T14:58:24;3.09;;;3.09;;
73132;SDS011;61320;52.008;4.530;2022-07-23T15:00:50;2.96;;;2.96;;
73132;SDS011;61320;52.008;4.530;2022-07-23T15:03:15;3.26;;;3.26;;
73132;SDS011;61320;52.008;4.530;2022-07-23T15:05:41;2.93;;;2.93;;
73132;SDS011;61320;52.008;4.530;2022-07-23T15:08:07;2.94;;;2.94;;
73132;SDS011;61320;52.008;4.530;2022-07-23T15:10:32;3.36;;;3.36;;
73132;SDS011;61320;52.008;4.530;2022-07-23T15:12:58;3.71;;;3.71;;
73132;SDS011;61320;52.008;4.530;2022-07-23T15:15:23;3.44;;;3.44;;
73132;SDS011;61320;52.008;4.530;2022-07-23T15:17:49;3.38;;;3.38;;
73132;SDS011;61320;52.008;4.530;2022-07-23T15:20:14;3.67;;;3.67;;
73132;SDS011;61320;52.008;4.530;2022-07-23T15:22:40;3.57;;;3.57;;
73132;SDS011;61320;52.008;4.530;2022-07-23T15:25:06;3.21;;;3.21;;
73132;SDS011;61320;52.008;4.530;2022-07-23T15:27:31;3.14;;;3.14;;
73132;SDS011;61320;52.008;4.530;2022-07-23T15:29:57;3.21;;;3.21;;
73132;SDS011;61320;52.008;4.530;2022-07-23T15:32:23;3.32;;;3.32;;
73132;SDS011;61320;52.008;4.530;2022-07-23T15:34:51;3.03;;;3.03;;
73132;SDS011;61320;52.008;4.530;2022-07-23T15:37:20;3.57;;;3.57;;